Time;durP1;ratioP1;P1;durP2;ratioP2;P2;SDS_P1;SDS_P2;PMS_P1;PMS_P2;Temp;Humidity;BMP_temperature;BMP_pressure;BME280_temperature;BME280_humidity;BME280_pressure;Samples;Min_cycle;Max_cycle;Signal;HPM_P1;HPM_P2
2023/03/20 00:01:13;;;;;;;10.98;5.32;;;6.80;99.90;;;;;;5090641;28;20048;-75
2023/03/20 00:03:39;;;;;;;8.35;5.28;;;6.80;99.90;;;;;;5090294;28;20653;-74
2023/03/20 00:06:11;;;;;;;10.43;4.93;;;6.80;99.90;;;;;;5090091;28;20063;-74
2023/03/20 00:08:38;;;;;;;12.10;5.90;;;6.80;99.90;;;;;;5089150;28;20068;-74
2023/03/20 00:11:04;;;;;;;10.98;5.40;;;7.20;99.90;;;;;;5090201;28;20406;-75
2023/03/20 00:13:29;;;;;;;13.90;5.43;;;6.80;99.90;;;;;;5090068;28;20044;-74
2023/03/20 00:15:55;;;;;;;14.88;5.80;;;6.80;99.90;;;;;;5088864;28;20055;-73
2023/03/20 00:18:22;;;;;;;11.68;5.45;;;6.80;99.90;;;;;;5090281;28;20044;-74
2023/03/20 00:20:49;;;;;;;14.82;6.03;;;6.80;99.90;;;;;;5089908;28;20073;-73
2023/03/20 00:23:16;;;;;;;10.90;5.88;;;6.80;99.90;;;;;;5088663;28;20055;-76
2023/03/20 00:25:43;;;;;;;14.73;5.80;;;6.80;99.90;;;;;;5090357;28;20047;-76
2023/03/20 00:28:37;;;;;;;14.07;5.78;;;6.80;99.90;;;;;;5090558;28;20044;-75
2023/03/20 00:31:05;;;;;;;13.52;5.72;;;6.80;99.90;;;;;;5088603;28;20402;-73
2023/03/20 00:33:31;;;;;;;14.38;5.70;;;6.80;99.90;;;;;;5089762;28;20818;-74
2023/03/20 00:35:57;;;;;;;16.83;5.68;;;6.80;99.90;;;;;;5089928;28;20052;-74
2023/03/20 00:38:24;;;;;;;11.85;5.75;;;6.80;99.90;;;;;;5089825;28;20063;-74
2023/03/20 00:40:50;;;;;;;14.55;6.10;;;6.80;99.90;;;;;;5090033;28;20052;-74
2023/03/20 00:43:16;;;;;;;12.10;6.10;;;6.80;99.90;;;;;;5093959;28;20050;-72
2023/03/20 00:45:44;;;;;;;10.05;5.63;;;6.80;99.90;;;;;;5094076;28;20063;-73
2023/03/20 00:48:14;;;;;;;16.00;5.43;;;6.80;99.90;;;;;;5094069;28;20036;-73
2023/03/20 00:50:40;;;;;;;13.80;5.10;;;6.80;99.90;;;;;;5093972;28;20040;-74
2023/03/20 00:53:08;;;;;;;10.98;5.43;;;6.80;99.90;;;;;;5094237;28;20043;-73
2023/03/20 00:55:34;;;;;;;9.48;5.13;;;6.80;99.90;;;;;;5093977;28;20082;-73
2023/03/20 00:58:01;;;;;;;16.38;5.70;;;6.80;99.90;;;;;;5093940;28;20040;-74
2023/03/20 01:00:42;;;;;;;11.55;5.30;;;6.80;99.90;;;;;;5092025;28;20170;-72
2023/03/20 01:03:13;;;;;;;10.70;5.00;;;6.80;99.90;;;;;;5073404;28;20070;-74
2023/03/20 01:05:39;;;;;;;11.18;5.38;;;6.80;99.90;;;;;;5073265;28;20396;-76
2023/03/20 01:08:17;;;;;;;10.15;5.18;;;6.80;99.90;;;;;;5089585;28;20056;-74
2023/03/20 01:10:45;;;;;;;9.18;5.20;;;6.80;99.90;;;;;;5089262;28;20460;-75
2023/03/20 01:13:24;;;;;;;10.55;5.05;;;6.80;99.90;;;;;;5073608;28;20040;-74
2023/03/20 01:15:51;;;;;;;10.25;5.57;;;6.80;99.90;;;;;;5072883;28;20490;-77
2023/03/20 01:18:18;;;;;;;12.70;5.38;;;6.80;99.90;;;;;;5090546;28;20647;-74
2023/03/20 01:20:45;;;;;;;12.00;5.68;;;6.80;99.90;;;;;;5092554;28;20043;-75
2023/03/20 01:23:11;;;;;;;12.82;5.82;;;6.90;99.90;;;;;;5093327;28;20047;-73
2023/03/20 01:25:37;;;;;;;12.50;5.63;;;6.90;99.90;;;;;;5093381;28;20102;-74
2023/03/20 01:28:12;;;;;;;12.38;5.65;;;6.90;99.90;;;;;;5093365;28;20066;-73
2023/03/20 01:30:37;;;;;;;13.00;6.18;;;6.90;99.90;;;;;;5092368;28;20588;-74
2023/03/20 01:33:14;;;;;;;24.58;7.07;;;6.90;99.90;;;;;;5093254;28;20032;-73
2023/03/20 01:35:39;;;;;;;13.55;6.55;;;6.90;99.90;;;;;;5092966;28;20554;-73
2023/03/20 01:38:13;;;;;;;16.52;6.63;;;7.30;99.90;;;;;;5093261;28;20134;-75
2023/03/20 01:40:38;;;;;;;14.90;6.53;;;6.90;99.90;;;;;;5092955;28;20050;-74
2023/03/20 01:43:15;;;;;;;19.23;7.43;;;6.90;99.90;;;;;;5092980;28;20052;-73
2023/03/20 01:45:59;;;;;;;18.27;8.15;;;6.90;99.90;;;;;;5093055;28;20044;-74
2023/03/20 01:48:35;;;;;;;11.52;6.65;;;7.00;99.90;;;;;;5092974;28;20130;-74
2023/03/20 01:51:01;;;;;;;15.65;7.65;;;7.00;99.90;;;;;;5092959;28;20138;-76
2023/03/20 01:53:29;;;;;;;13.98;7.22;;;7.00;99.90;;;;;;5092692;28;20131;-73
2023/03/20 01:55:57;;;;;;;19.10;7.65;;;7.00;99.90;;;;;;5092497;28;20051;-74
2023/03/20 01:58:36;;;;;;;18.80;8.13;;;7.00;99.90;;;;;;5092783;28;20048;-74
2023/03/20 02:01:03;;;;;;;24.15;8.63;;;7.00;99.90;;;;;;5092109;28;20516;-74
2023/03/20 02:03:29;;;;;;;17.35;7.90;;;7.00;99.90;;;;;;5092616;28;20047;-74
2023/03/20 02:05:56;;;;;;;22.02;8.30;;;7.00;99.90;;;;;;5092573;28;20109;-74
2023/03/20 02:08:36;;;;;;;23.60;8.30;;;7.30;99.90;;;;;;5091329;28;20063;-75
2023/03/20 02:11:03;;;;;;;21.13;7.97;;;7.10;99.90;;;;;;5092919;28;20044;-74
2023/03/20 02:13:31;;;;;;;21.42;8.65;;;7.10;99.90;;;;;;5092531;28;20048;-73
2023/03/20 02:16:09;;;;;;;25.10;8.55;;;7.10;99.90;;;;;;5090931;28;20486;-74
2023/03/20 02:18:36;;;;;;;23.52;8.10;;;7.10;99.90;;;;;;5092462;28;20058;-74
2023/03/20 02:21:26;;;;;;;18.65;8.30;;;7.10;99.90;;;;;;5090903;28;20565;-75
2023/03/20 02:24:14;;;;;;;19.27;7.75;;;7.10;99.90;;;;;;5092509;28;20043;-75
2023/03/20 02:27:14;;;;;;;19.25;7.93;;;7.10;99.90;;;;;;5090880;28;20048;-74
2023/03/20 02:30:16;;;;;;;16.73;6.85;;;7.10;99.90;;;;;;5091741;28;20043;-75
2023/03/20 02:33:04;;;;;;;22.83;7.35;;;7.10;99.90;;;;;;5092239;28;20491;-76
2023/03/20 02:35:32;;;;;;;22.75;7.68;;;7.10;99.90;;;;;;5092182;28;20394;-76
2023/03/20 02:38:16;;;;;;;21.73;7.57;;;7.20;99.90;;;;;;5090508;28;20062;-77
2023/03/20 02:41:07;;;;;;;17.70;7.20;;;7.10;99.90;;;;;;5091937;28;20151;-73
2023/03/20 02:43:46;;;;;;;22.98;7.75;;;7.20;99.90;;;;;;5092986;28;20068;-74
2023/03/20 02:46:17;;;;;;;17.73;7.00;;;7.20;99.90;;;;;;5091585;28;20493;-74
2023/03/20 02:48:55;;;;;;;22.50;8.20;;;7.20;99.90;;;;;;5091768;28;20040;-76
2023/03/20 02:51:24;;;;;;;19.30;7.80;;;7.20;99.90;;;;;;5091830;28;20044;-73
2023/03/20 02:54:32;;;;;;;16.65;7.47;;;7.20;99.90;;;;;;5091579;28;20096;-75
2023/03/20 02:57:34;;;;;;;23.08;9.50;;;7.20;99.90;;;;;;5091380;28;20064;-74
2023/03/20 03:00:12;;;;;;;15.75;7.90;;;7.20;99.90;;;;;;5091238;28;20474;-75
2023/03/20 03:03:11;;;;;;;18.85;8.45;;;7.20;99.90;;;;;;5090767;28;20128;-74
2023/03/20 03:05:47;;;;;;;21.55;8.65;;;7.20;99.90;;;;;;5046542;28;20068;-73
2023/03/20 03:08:18;;;;;;;21.42;9.60;;;7.20;99.90;;;;;;5048571;28;20061;-78
2023/03/20 03:10:49;;;;;;;18.77;9.00;;;7.20;99.90;;;;;;5032183;28;20053;-72
2023/03/20 03:13:20;;;;;;;22.15;8.80;;;7.20;99.90;;;;;;5048548;28;20049;-74
2023/03/20 03:15:50;;;;;;;21.13;9.23;;;7.20;99.90;;;;;;5048399;28;20167;-75
2023/03/20 03:18:22;;;;;;;20.38;9.07;;;7.30;99.90;;;;;;5048036;28;20087;-73
2023/03/20 03:20:51;;;;;;;18.67;8.20;;;7.20;99.90;;;;;;5028580;28;20049;-74
2023/03/20 03:23:29;;;;;;;19.95;8.75;;;7.20;99.90;;;;;;5039469;28;20061;-75
2023/03/20 03:25:59;;;;;;;21.45;9.27;;;7.20;99.90;;;;;;5048704;28;20056;-73
2023/03/20 03:28:37;;;;;;;20.13;8.75;;;7.30;99.90;;;;;;5048304;28;20052;-74
2023/03/20 03:31:10;;;;;;;19.02;8.60;;;7.30;99.90;;;;;;5047429;28;20480;-73
2023/03/20 03:33:40;;;;;;;19.85;9.20;;;7.30;99.90;;;;;;5047802;28;20049;-73
2023/03/20 03:36:18;;;;;;;18.90;8.15;;;7.30;99.90;;;;;;5047940;28;20060;-74
2023/03/20 03:39:06;;;;;;;21.23;8.80;;;7.60;99.90;;;;;;5047641;28;20036;-75
2023/03/20 03:41:48;;;;;;;20.70;9.10;;;7.30;99.90;;;;;;5048892;28;20045;-75
2023/03/20 03:44:27;;;;;;;20.52;8.63;;;7.30;99.90;;;;;;5070640;28;20040;-73
2023/03/20 03:46:57;;;;;;;22.00;8.98;;;7.30;99.90;;;;;;5069369;28;20552;-74
2023/03/20 03:49:29;;;;;;;18.00;8.55;;;7.30;99.90;;;;;;5075565;28;20086;-75
2023/03/20 03:51:59;;;;;;;20.52;8.93;;;7.30;99.90;;;;;;5090535;28;20158;-74
2023/03/20 03:54:33;;;;;;;16.48;8.48;;;7.30;99.90;;;;;;5089036;28;20140;-75
2023/03/20 03:57:01;;;;;;;16.17;7.78;;;7.30;99.90;;;;;;5089831;28;20070;-74
2023/03/20 03:59:40;;;;;;;13.27;7.68;;;7.30;99.90;;;;;;5090457;28;20131;-73
2023/03/20 04:02:08;;;;;;;16.58;7.68;;;7.30;99.90;;;;;;5088360;28;20098;-74
2023/03/20 04:04:36;;;;;;;17.40;7.75;;;7.30;99.90;;;;;;5089310;28;20083;-73
2023/03/20 04:07:02;;;;;;;17.23;7.22;;;7.30;99.90;;;;;;5090422;28;20052;-75
2023/03/20 04:09:28;;;;;;;15.73;8.23;;;7.30;99.90;;;;;;5088926;28;20513;-75
2023/03/20 04:11:54;;;;;;;19.25;7.70;;;7.30;99.90;;;;;;5090074;28;20036;-76
2023/03/20 04:14:19;;;;;;;19.60;7.38;;;7.30;99.90;;;;;;5090093;28;20572;-79
2023/03/20 04:16:45;;;;;;;21.00;7.97;;;7.30;99.90;;;;;;5088945;28;20043;-74
2023/03/20 04:19:11;;;;;;;16.00;7.80;;;7.30;99.90;;;;;;5089576;28;20059;-75
2023/03/20 04:21:37;;;;;;;18.35;8.15;;;7.60;99.90;;;;;;5088757;28;20089;-73
2023/03/20 04:24:03;;;;;;;19.63;9.95;;;7.30;99.90;;;;;;5089792;28;20424;-72
2023/03/20 04:26:28;;;;;;;16.60;7.82;;;7.30;99.90;;;;;;5089966;28;20047;-73
2023/03/20 04:28:54;;;;;;;17.40;8.13;;;7.30;99.90;;;;;;5089992;28;20087;-73
2023/03/20 04:31:20;;;;;;;17.50;7.93;;;7.30;99.90;;;;;;5089350;28;20050;-73
2023/03/20 04:33:46;;;;;;;18.95;8.75;;;7.30;99.90;;;;;;5089708;28;20044;-75
2023/03/20 04:36:12;;;;;;;14.35;7.78;;;7.30;99.90;;;;;;5090208;28;20089;-74
2023/03/20 04:38:37;;;;;;;19.48;8.55;;;7.30;99.90;;;;;;5088902;28;20078;-73
2023/03/20 04:41:03;;;;;;;17.83;8.40;;;7.60;99.90;;;;;;5090441;28;20052;-73
2023/03/20 04:43:29;;;;;;;15.70;8.55;;;7.30;99.90;;;;;;5089929;28;20101;-73
2023/03/20 04:45:55;;;;;;;17.38;8.88;;;7.30;99.90;;;;;;5090002;28;20051;-73
2023/03/20 04:48:21;;;;;;;16.33;9.18;;;7.30;99.90;;;;;;5088747;28;20083;-75
2023/03/20 04:50:47;;;;;;;18.13;8.85;;;7.30;99.90;;;;;;5090259;28;20044;-74
2023/03/20 04:53:17;;;;;;;16.75;8.15;;;7.30;99.90;;;;;;5088366;28;20119;-72
2023/03/20 04:55:46;;;;;;;16.58;8.05;;;7.30;99.90;;;;;;5089764;28;20048;-74
2023/03/20 04:58:14;;;;;;;18.90;8.75;;;7.20;99.90;;;;;;5089935;28;20121;-75
2023/03/20 05:00:40;;;;;;;18.42;7.85;;;7.30;99.90;;;;;;5087943;28;20044;-74
2023/03/20 05:03:05;;;;;;;17.52;8.05;;;7.30;99.90;;;;;;5088868;28;20419;-75
2023/03/20 05:05:32;;;;;;;19.02;9.10;;;7.30;99.90;;;;;;5089055;28;20410;-75
2023/03/20 05:07:58;;;;;;;16.70;7.68;;;7.30;99.90;;;;;;5088092;28;20468;-75
2023/03/20 05:10:24;;;;;;;22.60;8.48;;;7.20;99.90;;;;;;5089558;28;20036;-75
2023/03/20 05:12:49;;;;;;;15.85;8.57;;;7.30;99.90;;;;;;5089596;28;20084;-75
2023/03/20 05:15:15;;;;;;;18.02;7.82;;;7.20;99.90;;;;;;5089636;28;20131;-75
2023/03/20 05:17:41;;;;;;;13.30;7.90;;;7.30;99.90;;;;;;5089482;28;20051;-76
2023/03/20 05:20:07;;;;;;;23.27;8.32;;;7.30;99.90;;;;;;5089150;28;20109;-74
2023/03/20 05:22:33;;;;;;;21.52;8.90;;;7.20;99.90;;;;;;5089570;28;20483;-76
2023/03/20 05:25:00;;;;;;;16.13;8.63;;;7.20;99.90;;;;;;5089366;28;20040;-78
2023/03/20 05:27:25;;;;;;;17.48;8.10;;;7.20;99.90;;;;;;5089393;28;20101;-75
2023/03/20 05:29:51;;;;;;;18.90;7.57;;;7.40;99.90;;;;;;5092976;28;20048;-75
2023/03/20 05:32:17;;;;;;;17.55;8.75;;;7.20;99.90;;;;;;5092609;28;20048;-75
2023/03/20 05:34:42;;;;;;;19.17;8.38;;;7.20;99.90;;;;;;5093169;28;20087;-73
2023/03/20 05:37:08;;;;;;;19.75;8.38;;;7.20;99.90;;;;;;5092103;28;20078;-73
2023/03/20 05:39:34;;;;;;;15.80;7.85;;;7.20;99.90;;;;;;5093394;28;20448;-73
2023/03/20 05:42:00;;;;;;;18.92;7.88;;;7.20;99.90;;;;;;5091528;28;20547;-73
2023/03/20 05:44:25;;;;;;;16.23;8.07;;;7.20;99.90;;;;;;5093046;28;20117;-73
2023/03/20 05:46:51;;;;;;;15.82;7.93;;;7.10;99.90;;;;;;5092975;28;20132;-74
2023/03/20 05:49:16;;;;;;;16.50;7.80;;;7.20;99.90;;;;;;5093503;28;20079;-74
2023/03/20 05:51:42;;;;;;;19.45;8.60;;;7.10;99.90;;;;;;5093246;28;20127;-74
2023/03/20 05:54:08;;;;;;;17.75;8.30;;;7.20;99.90;;;;;;5092991;28;20093;-74
2023/03/20 05:56:33;;;;;;;15.70;8.57;;;7.20;99.90;;;;;;5091795;28;20127;-75
2023/03/20 05:58:59;;;;;;;16.63;8.85;;;7.20;99.90;;;;;;5092828;28;20088;-73
2023/03/20 06:01:24;;;;;;;18.58;8.90;;;7.10;99.90;;;;;;5093006;28;20052;-75
2023/03/20 06:03:50;;;;;;;20.55;9.20;;;7.10;99.90;;;;;;5092796;28;20123;-75
2023/03/20 06:06:16;;;;;;;20.17;9.55;;;7.40;99.90;;;;;;5092466;28;20499;-73
2023/03/20 06:08:43;;;;;;;17.17;9.18;;;7.20;99.90;;;;;;5092984;28;20052;-74
2023/03/20 06:11:09;;;;;;;22.48;8.90;;;7.20;99.90;;;;;;5092375;28;20501;-73
2023/03/20 06:13:34;;;;;;;17.20;8.55;;;7.60;99.90;;;;;;5091309;28;20514;-74
2023/03/20 06:16:00;;;;;;;20.73;9.80;;;7.30;99.90;;;;;;5092476;28;20048;-73
2023/03/20 06:18:26;;;;;;;22.58;9.85;;;7.20;99.90;;;;;;5092113;28;20040;-75
2023/03/20 06:20:52;;;;;;;19.67;9.40;;;7.20;99.90;;;;;;5091885;28;20048;-73
2023/03/20 06:23:18;;;;;;;19.67;9.57;;;7.20;99.90;;;;;;5092251;28;20052;-73
2023/03/20 06:25:44;;;;;;;18.27;9.50;;;7.20;99.90;;;;;;5091598;28;20048;-73
2023/03/20 06:28:09;;;;;;;19.15;9.63;;;7.20;99.90;;;;;;5092258;28;20044;-74
2023/03/20 06:30:36;;;;;;;19.40;10.00;;;7.20;99.90;;;;;;5091665;28;20079;-73
2023/03/20 06:33:02;;;;;;;19.33;9.35;;;7.20;99.90;;;;;;5091718;28;20040;-75
2023/03/20 06:35:30;;;;;;;17.80;10.07;;;7.20;99.90;;;;;;5091918;28;20044;-74
2023/03/20 06:37:56;;;;;;;21.60;10.73;;;7.20;99.90;;;;;;5091939;28;20119;-74
2023/03/20 06:40:22;;;;;;;20.17;9.93;;;7.30;99.90;;;;;;5089724;28;20052;-73
2023/03/20 06:42:48;;;;;;;20.33;10.10;;;7.40;99.90;;;;;;5091621;28;20066;-73
2023/03/20 06:45:13;;;;;;;22.70;9.73;;;7.30;99.90;;;;;;5091839;28;20036;-74
2023/03/20 06:47:39;;;;;;;15.38;8.50;;;7.30;99.90;;;;;;5091768;28;20052;-73
2023/03/20 06:50:05;;;;;;;19.80;9.93;;;7.30;99.90;;;;;;5090214;28;20051;-74
2023/03/20 06:52:31;;;;;;;26.42;10.73;;;7.40;99.90;;;;;;5091096;28;20050;-74
2023/03/20 06:54:57;;;;;;;24.02;10.55;;;7.30;99.90;;;;;;5091142;28;20044;-74
2023/03/20 06:57:23;;;;;;;16.77;9.82;;;7.40;99.90;;;;;;5091968;28;20048;-74
2023/03/20 06:59:49;;;;;;;19.25;10.23;;;7.40;99.90;;;;;;5091870;28;20390;-74
2023/03/20 07:02:15;;;;;;;20.60;9.70;;;7.40;99.90;;;;;;5091083;28;20044;-73
2023/03/20 07:04:41;;;;;;;17.15;9.60;;;7.40;99.90;;;;;;5091438;28;20080;-72
2023/03/20 07:07:07;;;;;;;17.95;9.68;;;7.40;99.90;;;;;;5091141;28;20083;-74
2023/03/20 07:09:33;;;;;;;20.80;9.60;;;7.50;99.90;;;;;;5091540;28;20036;-73
2023/03/20 07:11:59;;;;;;;17.73;9.48;;;8.00;99.90;;;;;;5091325;28;20035;-73
2023/03/20 07:14:25;;;;;;;19.35;10.27;;;7.50;99.90;;;;;;5091546;28;20042;-79
2023/03/20 07:16:50;;;;;;;22.98;9.25;;;7.50;99.90;;;;;;5091382;28;20036;-73
2023/03/20 07:19:17;;;;;;;20.13;9.88;;;7.50;99.90;;;;;;5090954;28;20141;-74
2023/03/20 07:21:43;;;;;;;20.08;10.80;;;7.60;99.90;;;;;;5090550;28;20047;-74
2023/03/20 07:24:09;;;;;;;18.38;8.95;;;7.60;99.90;;;;;;5090663;28;20044;-74
2023/03/20 07:26:34;;;;;;;16.27;10.23;;;7.60;99.90;;;;;;5090883;28;20429;-73
2023/03/20 07:29:00;;;;;;;19.35;10.50;;;7.80;99.90;;;;;;5090919;28;20483;-73
2023/03/20 07:31:31;;;;;;;17.45;9.40;;;7.70;99.90;;;;;;5089226;28;20052;-74
2023/03/20 07:33:56;;;;;;;19.50;9.75;;;7.70;99.90;;;;;;5090695;28;20044;-74
2023/03/20 07:36:22;;;;;;;16.50;9.23;;;7.80;99.90;;;;;;5090526;28;20451;-74
2023/03/20 07:38:48;;;;;;;22.20;11.30;;;7.80;99.90;;;;;;5090494;28;20055;-74
2023/03/20 07:41:14;;;;;;;19.27;9.82;;;7.80;99.90;;;;;;5090889;28;20048;-74
2023/03/20 07:43:39;;;;;;;21.23;10.80;;;7.80;99.90;;;;;;5090172;28;20039;-73
2023/03/20 07:46:07;;;;;;;19.02;11.32;;;7.90;99.90;;;;;;5088521;28;20834;-77
2023/03/20 07:48:34;;;;;;;19.98;10.18;;;8.00;99.90;;;;;;5089424;28;20048;-75
2023/03/20 07:51:01;;;;;;;20.60;11.07;;;7.90;99.90;;;;;;5090631;28;20044;-75
2023/03/20 07:53:27;;;;;;;22.15;11.00;;;8.00;99.90;;;;;;5088920;28;20051;-74
2023/03/20 07:55:52;;;;;;;23.63;11.30;;;8.00;99.90;;;;;;5090421;28;20055;-79
2023/03/20 07:58:18;;;;;;;18.63;9.85;;;8.00;99.90;;;;;;5090464;28;20040;-76
2023/03/20 08:00:44;;;;;;;21.00;11.45;;;8.00;99.90;;;;;;5089859;28;20044;-77
2023/03/20 08:03:10;;;;;;;17.98;10.48;;;8.00;99.90;;;;;;5090065;28;20052;-78
2023/03/20 08:05:36;;;;;;;20.40;11.13;;;8.10;99.90;;;;;;5090010;28;20051;-72
2023/03/20 08:08:02;;;;;;;23.40;11.18;;;8.10;99.90;;;;;;5090255;28;20052;-74
2023/03/20 08:10:28;;;;;;;24.42;10.18;;;8.20;99.90;;;;;;5090505;28;20044;-73
2023/03/20 08:12:54;;;;;;;21.27;11.15;;;8.20;99.90;;;;;;5088917;28;20395;-74
2023/03/20 08:15:20;;;;;;;21.33;11.27;;;8.20;99.90;;;;;;5090058;28;20126;-73
2023/03/20 08:17:46;;;;;;;23.52;10.90;;;8.30;99.90;;;;;;5089954;28;20127;-73
2023/03/20 08:20:13;;;;;;;23.80;10.95;;;8.30;99.90;;;;;;5090040;28;20048;-74
2023/03/20 08:22:39;;;;;;;23.40;10.88;;;8.30;99.90;;;;;;5089706;28;20052;-76
2023/03/20 08:25:07;;;;;;;24.00;10.68;;;8.40;99.90;;;;;;5088408;28;20054;-73
2023/03/20 08:27:33;;;;;;;21.42;10.48;;;8.40;99.90;;;;;;5090189;28;20051;-73
2023/03/20 08:29:59;;;;;;;21.38;10.95;;;8.40;99.90;;;;;;5090042;28;20134;-73
2023/03/20 08:32:25;;;;;;;25.25;12.38;;;8.40;99.90;;;;;;5089910;28;20131;-73
2023/03/20 08:34:51;;;;;;;23.70;11.63;;;8.40;99.90;;;;;;5090017;28;20085;-74
2023/03/20 08:37:17;;;;;;;25.40;10.77;;;8.40;99.90;;;;;;5089913;28;20052;-75
2023/03/20 08:39:43;;;;;;;23.88;10.77;;;8.50;99.90;;;;;;5089751;28;20055;-76
2023/03/20 08:42:08;;;;;;;26.98;11.52;;;8.40;99.90;;;;;;5089579;28;20036;-74
2023/03/20 08:44:34;;;;;;;24.95;10.50;;;8.50;99.90;;;;;;5089795;28;20059;-74
2023/03/20 08:47:00;;;;;;;26.30;11.20;;;8.50;99.90;;;;;;5089902;28;20052;-74
2023/03/20 08:49:26;;;;;;;24.73;11.65;;;8.50;99.90;;;;;;5104761;28;20538;-73
2023/03/20 08:51:52;;;;;;;18.13;9.88;;;8.50;99.90;;;;;;5089567;28;20047;-73
2023/03/20 08:54:18;;;;;;;21.48;10.23;;;8.60;99.90;;;;;;5089612;28;20105;-74
2023/03/20 08:56:46;;;;;;;23.73;10.82;;;8.60;99.90;;;;;;5090142;28;20044;-73
2023/03/20 08:59:12;;;;;;;21.58;10.80;;;8.90;99.90;;;;;;5089896;28;20844;-72
2023/03/20 09:01:38;;;;;;;21.45;10.90;;;8.70;99.90;;;;;;5090366;28;20044;-73
2023/03/20 09:04:04;;;;;;;23.42;11.10;;;8.70;99.90;;;;;;5094728;28;20538;-76
2023/03/20 09:06:31;;;;;;;21.20;10.95;;;9.10;99.90;;;;;;5094010;28;20503;-75
2023/03/20 09:08:57;;;;;;;22.38;10.95;;;8.80;99.90;;;;;;5094631;28;20051;-74
2023/03/20 09:11:23;;;;;;;24.15;10.88;;;8.90;99.90;;;;;;5094417;28;20044;-74
2023/03/20 09:13:49;;;;;;;24.05;10.25;;;9.40;99.90;;;;;;5094446;28;20398;-75
2023/03/20 09:16:15;;;;;;;21.10;9.70;;;9.30;99.90;;;;;;5094206;28;20044;-74
2023/03/20 09:18:40;;;;;;;20.58;10.05;;;9.00;99.90;;;;;;5094265;28;20036;-74
2023/03/20 09:21:06;;;;;;;19.00;9.60;;;9.10;99.90;;;;;;5092589;28;20070;-74
2023/03/20 09:23:32;;;;;;;19.33;10.02;;;9.10;99.90;;;;;;5093491;28;20055;-74
2023/03/20 09:25:58;;;;;;;21.90;9.63;;;9.10;99.90;;;;;;5094320;28;20433;-73
2023/03/20 09:28:24;;;;;;;20.88;10.27;;;9.30;99.90;;;;;;5093680;28;20486;-73
2023/03/20 09:30:57;;;;;;;18.23;9.68;;;9.20;99.90;;;;;;5093976;28;20036;-74
2023/03/20 09:33:23;;;;;;;17.00;9.15;;;9.20;99.90;;;;;;5094172;28;20078;-73
2023/03/20 09:35:49;;;;;;;18.55;9.60;;;9.20;99.90;;;;;;5092269;28;20051;-77
2023/03/20 09:38:15;;;;;;;20.10;9.18;;;9.20;99.90;;;;;;5092615;28;20052;-74
2023/03/20 09:40:58;;;;;;;17.40;9.10;;;9.30;99.90;;;;;;5093670;28;20039;-74
2023/03/20 09:43:52;;;;;;;17.02;9.52;;;9.60;99.90;;;;;;5093394;28;20043;-74
2023/03/20 09:46:27;;;;;;;21.73;9.82;;;9.40;99.90;;;;;;5093632;28;20597;-75
2023/03/20 09:49:08;;;;;;;21.60;9.65;;;9.50;99.90;;;;;;5092446;28;20121;-77
2023/03/20 09:51:50;;;;;;;15.38;8.43;;;9.50;99.90;;;;;;5093478;28;20551;-74
2023/03/20 09:54:28;;;;;;;22.98;8.73;;;9.50;99.90;;;;;;5093415;28;20048;-76
2023/03/20 09:56:55;;;;;;;24.15;10.18;;;9.50;99.90;;;;;;5093238;28;20044;-74
2023/03/20 09:59:24;;;;;;;19.67;10.02;;;9.50;99.90;;;;;;5093755;28;20069;-76
2023/03/20 10:01:55;;;;;;;17.77;9.05;;;9.60;99.90;;;;;;5093589;28;20453;-75
2023/03/20 10:04:25;;;;;;;23.85;9.93;;;9.70;99.90;;;;;;5093611;28;20048;-78
2023/03/20 10:06:52;;;;;;;18.83;9.90;;;10.30;99.90;;;;;;5092817;28;20044;-75
2023/03/20 10:09:25;;;;;;;20.38;8.80;;;10.00;99.90;;;;;;5093197;28;20102;-75
2023/03/20 10:12:07;;;;;;;22.55;9.55;;;10.00;99.90;;;;;;5091412;28;20048;-74
2023/03/20 10:15:02;;;;;;;21.70;8.38;;;10.00;99.90;;;;;;5091564;28;20506;-75
2023/03/20 10:17:36;;;;;;;19.25;8.70;;;10.00;99.90;;;;;;5092802;28;20051;-75
2023/03/20 10:20:13;;;;;;;18.23;9.05;;;10.00;99.90;;;;;;5092839;28;20071;-75
2023/03/20 10:22:48;;;;;;;19.33;8.68;;;10.00;99.90;;;;;;5092729;28;20047;-74
2023/03/20 10:25:14;;;;;;;24.67;9.13;;;9.90;99.90;;;;;;5092665;28;20048;-75
2023/03/20 10:27:46;;;;;;;16.98;8.65;;;9.90;99.90;;;;;;5092905;28;20123;-74
2023/03/20 10:30:34;;;;;;;19.73;8.65;;;9.80;99.90;;;;;;5090931;28;20115;-75
2023/03/20 10:33:25;;;;;;;20.92;8.77;;;9.90;99.90;;;;;;5090817;28;20067;-73
2023/03/20 10:36:10;;;;;;;20.38;8.57;;;10.00;99.90;;;;;;5091594;28;20093;-73
2023/03/20 10:38:48;;;;;;;18.27;8.93;;;9.90;99.90;;;;;;5092522;28;20048;-75
2023/03/20 10:41:18;;;;;;;19.30;8.73;;;10.00;99.90;;;;;;5092198;28;20040;-74
2023/03/20 10:43:46;;;;;;;17.10;7.85;;;10.20;99.90;;;;;;5092555;28;20044;-75
2023/03/20 10:46:20;;;;;;;22.15;8.05;;;10.60;99.90;;;;;;5090870;28;20055;-73
2023/03/20 10:48:49;;;;;;;21.38;7.93;;;10.00;99.90;;;;;;5092587;28;20048;-74
2023/03/20 10:51:26;;;;;;;19.23;8.85;;;9.90;99.90;;;;;;5092257;28;20105;-76
2023/03/20 10:53:55;;;;;;;14.68;7.60;;;10.00;99.90;;;;;;5092266;28;20047;-77
2023/03/20 10:56:43;;;;;;;21.05;8.13;;;10.00;99.90;;;;;;5091991;28;20551;-75
2023/03/20 10:59:22;;;;;;;20.20;7.55;;;10.00;99.90;;;;;;5092416;28;20040;-73
2023/03/20 11:01:48;;;;;;;15.80;7.30;;;10.00;99.90;;;;;;5092032;28;20036;-83
2023/03/20 11:04:14;;;;;;;14.80;7.00;;;9.90;99.90;;;;;;5091809;28;20536;-73
2023/03/20 11:06:48;;;;;;;17.63;7.88;;;9.90;99.90;;;;;;5090773;28;20055;-74
2023/03/20 11:09:22;;;;;;;13.50;7.63;;;10.10;99.90;;;;;;5092231;28;20044;-74
2023/03/20 11:11:51;;;;;;;21.73;6.97;;;10.10;99.90;;;;;;5089485;28;20066;-73
2023/03/20 11:14:21;;;;;;;13.90;7.43;;;10.30;99.90;;;;;;5092094;28;20459;-80
2023/03/20 11:16:52;;;;;;;18.83;7.38;;;9.80;99.90;;;;;;5091718;28;20036;-75
2023/03/20 11:19:20;;;;;;;18.48;6.95;;;9.60;99.90;;;;;;5090819;28;20060;-77
2023/03/20 11:21:55;;;;;;;17.95;6.80;;;9.60;99.90;;;;;;5092208;28;20047;-75
2023/03/20 11:24:20;;;;;;;;;;;9.70;99.90;;;;;;5092143;28;20051;-74
2023/03/20 11:26:46;;;;;;;15.23;6.25;;;9.60;99.90;;;;;;5091397;28;19928;-75
2023/03/20 11:29:25;;;;;;;18.48;6.45;;;9.70;99.90;;;;;;5091579;28;20043;-74
2023/03/20 11:31:51;;;;;;;16.67;6.40;;;9.60;99.90;;;;;;5089685;28;20070;-84
2023/03/20 11:34:16;;;;;;;15.35;7.10;;;9.50;99.90;;;;;;5091412;28;20036;-77
2023/03/20 11:36:59;;;;;;;18.02;7.05;;;9.60;99.90;;;;;;5090513;28;20052;-76
2023/03/20 11:39:32;;;;;;;16.63;6.35;;;10.10;99.90;;;;;;5078421;28;20044;-74
2023/03/20 11:42:01;;;;;;;17.75;6.43;;;9.60;99.90;;;;;;5071042;28;20052;-72
2023/03/20 11:44:36;;;;;;;14.23;6.32;;;9.60;99.90;;;;;;5079044;28;20086;-72
2023/03/20 11:47:20;;;;;;;11.50;6.18;;;9.50;99.90;;;;;;5073144;28;20052;-73
2023/03/20 11:49:49;;;;;;;12.63;5.43;;;9.50;99.90;;;;;;5091229;28;20051;-72
2023/03/20 11:52:21;;;;;;;10.35;3.47;;;9.50;99.90;;;;;;5089469;28;20055;-74
2023/03/20 11:54:51;;;;;;;11.82;4.60;;;9.40;99.90;;;;;;5090753;28;20475;-73
2023/03/20 11:57:33;;;;;;;11.55;4.63;;;9.40;99.90;;;;;;5090753;28;20087;-73
2023/03/20 12:00:23;;;;;;;9.68;4.65;;;9.30;99.90;;;;;;5090424;28;20054;-74
2023/03/20 12:02:49;;;;;;;14.38;5.00;;;9.30;99.90;;;;;;5064377;28;20104;-73
2023/03/20 12:05:38;;;;;;;11.20;4.50;;;9.30;99.90;;;;;;5090522;28;20072;-74
2023/03/20 12:08:17;;;;;;;8.63;4.75;;;9.30;99.90;;;;;;5090371;28;20101;-73
2023/03/20 12:10:52;;;;;;;11.93;4.35;;;9.30;99.90;;;;;;5089128;28;20044;-74
2023/03/20 12:13:28;;;;;;;12.93;4.63;;;9.30;99.90;;;;;;5088870;28;20494;-73
2023/03/20 12:16:03;;;;;;;9.02;4.75;;;9.30;99.90;;;;;;5089570;28;20170;-76
2023/03/20 12:18:40;;;;;;;;;;;9.20;99.90;;;;;;5090916;28;20085;-74
2023/03/20 12:21:33;;;;;;;12.00;4.80;;;9.30;99.90;;;;;;5090137;28;19949;-74
2023/03/20 12:24:37;;;;;;;14.90;5.03;;;9.20;99.90;;;;;;5089895;28;20051;-73
2023/03/20 12:27:38;;;;;;;10.73;5.80;;;9.10;99.90;;;;;;5010804;28;20484;-74
2023/03/20 12:30:18;;;;;;;12.77;5.07;;;9.20;99.90;;;;;;5027159;28;20853;-73
2023/03/20 12:33:15;;;;;;;18.67;5.88;;;9.20;99.90;;;;;;5027384;28;20219;-73
2023/03/20 12:35:46;;;;;;;15.25;5.35;;;9.20;99.90;;;;;;5027271;28;20087;-75
2023/03/20 12:38:29;;;;;;;13.65;4.57;;;9.20;99.90;;;;;;5026506;28;20452;-74
2023/03/20 12:41:02;;;;;;;12.52;5.35;;;9.10;99.90;;;;;;5027219;28;20057;-76
2023/03/20 12:43:41;;;;;;;13.15;5.30;;;9.10;99.90;;;;;;5026648;28;20069;-74
2023/03/20 12:46:48;;;;;;;11.32;4.53;;;9.00;99.90;;;;;;5010781;28;20451;-75
2023/03/20 12:49:21;;;;;;;12.05;5.93;;;8.80;99.90;;;;;;4949001;29;20052;-75
2023/03/20 12:51:56;;;;;;;19.25;6.50;;;8.80;99.90;;;;;;4933076;29;20083;-74
2023/03/20 12:54:27;;;;;;;17.90;6.15;;;8.80;99.90;;;;;;4949176;29;20158;-75
2023/03/20 12:57:17;;;;;;;12.40;5.18;;;8.80;99.90;;;;;;4949076;29;20055;-76
2023/03/20 13:00:04;;;;;;;10.63;5.60;;;8.70;99.90;;;;;;4948887;29;20063;-77
2023/03/20 13:02:32;;;;;;;13.02;5.82;;;8.80;99.90;;;;;;4981669;28;20945;-76
2023/03/20 13:05:06;;;;;;;9.40;5.50;;;9.20;99.90;;;;;;5026903;28;20929;-74